Time;durP1;ratioP1;P1;durP2;ratioP2;P2;SDS_P1;SDS_P2;PMS_P1;PMS_P2;Temp;Humidity;BMP_temperature;BMP_pressure;BME280_temperature;BME280_humidity;BME280_pressure;Samples;Min_cycle;Max_cycle;Signal;HPM_P1;HPM_P2
2021/06/07 00:02:22;;;;;;;0.40;0.40;;;;;;;-144.31;68.63;74587.06;5009525;28;20081;-78
2021/06/07 00:04:50;;;;;;;0.30;0.30;;;;;;;-144.31;68.62;74587.06;5016298;28;20076;-78
2021/06/07 00:07:15;;;;;;;0.40;0.40;;;;;;;-144.31;68.61;74581.06;5010475;28;20511;-78
2021/06/07 00:09:41;;;;;;;0.40;0.40;;;;;;;-144.31;68.59;74579.06;5008715;28;20057;-78
2021/06/07 00:12:12;;;;;;;0.40;0.40;;;;;;;-144.31;68.58;74589.06;5001828;28;20042;-78
2021/06/07 00:14:37;;;;;;;0.52;0.52;;;;;;;-144.31;68.57;74585.06;5007998;28;20045;-78
2021/06/07 00:17:04;;;;;;;0.40;0.40;;;;;;;-144.31;68.55;74587.06;4992696;28;20087;-79
2021/06/07 00:19:35;;;;;;;0.50;0.50;;;;;;;-144.31;68.54;74589.06;5007832;28;20046;-79
2021/06/07 00:22:01;;;;;;;0.40;0.40;;;;;;;-144.31;68.53;74587.06;5004747;28;20057;-78
2021/06/07 00:24:27;;;;;;;0.35;0.35;;;;;;;-144.31;68.51;74589.06;4988058;28;20520;-79
2021/06/07 00:26:53;;;;;;;0.40;0.40;;;;;;;-144.31;68.50;74589.06;5014476;28;20092;-80
2021/06/07 00:29:21;;;;;;;0.32;0.32;;;;;;;-144.31;68.49;74587.06;5006418;28;20082;-79
2021/06/07 00:31:47;;;;;;;0.50;0.50;;;;;;;-144.31;68.46;74581.06;5002949;28;20057;-80
2021/06/07 00:34:13;;;;;;;0.50;0.50;;;;;;;-144.31;68.45;74581.06;5010138;28;20046;-79
2021/06/07 00:36:39;;;;;;;0.40;0.40;;;;;;;-144.31;68.43;74575.06;5007979;28;20052;-79
2021/06/07 00:39:11;;;;;;;0.40;0.40;;;;;;;-144.31;68.42;74575.06;5009738;28;20390;-78
2021/06/07 00:41:40;;;;;;;0.50;0.50;;;;;;;-144.31;68.41;74575.06;5001413;28;20053;-78
2021/06/07 00:44:17;;;;;;;0.40;0.40;;;;;;;-144.31;68.40;74579.06;5006611;28;20188;-78
2021/06/07 00:46:45;;;;;;;0.50;0.50;;;;;;;-144.31;68.37;74571.06;5005130;28;20575;-78
2021/06/07 00:49:13;;;;;;;0.30;0.30;;;;;;;-144.31;68.35;74559.09;5007331;28;20503;-78
2021/06/07 00:51:40;;;;;;;0.40;0.40;;;;;;;-144.31;68.34;74571.06;5005704;28;20286;-79
2021/06/07 00:54:06;;;;;;;0.40;0.40;;;;;;;-144.31;68.32;74567.09;5008364;28;20038;-78
2021/06/07 00:56:35;;;;;;;0.50;0.50;;;;;;;-144.31;68.31;74567.09;5004106;28;20156;-78
2021/06/07 00:59:00;;;;;;;0.40;0.40;;;;;;;-144.31;68.30;74571.06;5016842;28;20045;-78
2021/06/07 01:01:27;;;;;;;0.43;0.43;;;;;;;-144.31;68.29;74579.06;5002375;28;20042;-78
2021/06/07 01:03:56;;;;;;;0.40;0.40;;;;;;;-144.31;68.27;74567.09;4980580;28;20041;-78
2021/06/07 01:06:21;;;;;;;0.40;0.40;;;;;;;-144.31;68.27;74587.06;5006339;28;20546;-78
2021/06/07 01:08:47;;;;;;;0.40;0.40;;;;;;;-144.31;68.27;74591.03;5014295;28;20061;-78
2021/06/07 01:11:16;;;;;;;0.55;0.55;;;;;;;-144.31;68.25;74593.03;5004773;28;20114;-78
2021/06/07 01:13:43;;;;;;;0.32;0.32;;;;;;;-144.31;68.25;74591.03;4987389;28;20129;-78
2021/06/07 01:16:10;;;;;;;0.50;0.50;;;;;;;-144.31;68.24;74587.06;5015318;28;20215;-78
2021/06/07 01:18:39;;;;;;;0.50;0.50;;;;;;;-144.31;68.24;74591.03;5005046;28;20072;-78
2021/06/07 01:21:07;;;;;;;0.40;0.40;;;;;;;-144.31;68.24;74601.03;5006096;28;20124;-78
2021/06/07 01:23:35;;;;;;;0.60;0.60;;;;;;;-144.31;68.23;74591.03;5014517;28;20291;-78
2021/06/07 01:26:03;;;;;;;0.47;0.47;;;;;;;-144.31;68.23;74597.03;5007254;28;20133;-78
2021/06/07 01:28:30;;;;;;;0.40;0.40;;;;;;;-144.31;68.24;74603.03;5001971;28;20038;-78
2021/06/07 01:30:56;;;;;;;0.50;0.50;;;;;;;-144.31;68.23;74581.06;5006725;28;20057;-78
2021/06/07 01:33:24;;;;;;;0.50;0.50;;;;;;;-144.31;68.21;74569.09;5008726;28;20439;-77
2021/06/07 01:35:53;;;;;;;0.38;0.38;;;;;;;-144.31;68.22;74591.03;4992065;28;20046;-78
2021/06/07 01:38:21;;;;;;;0.40;0.40;;;;;;;-144.31;68.24;74597.03;5008663;28;20044;-78
2021/06/07 01:40:49;;;;;;;0.55;0.55;;;;;;;-144.31;68.24;74599.03;5011666;28;20377;-78
2021/06/07 01:43:15;;;;;;;0.52;0.50;;;;;;;-144.31;68.24;74599.03;5004007;28;20050;-78
2021/06/07 01:45:42;;;;;;;0.40;0.40;;;;;;;-144.31;68.24;74603.03;4980913;28;20054;-78
2021/06/07 01:48:10;;;;;;;0.40;0.40;;;;;;;-144.31;68.25;74611.00;5015612;28;20042;-78
2021/06/07 01:50:37;;;;;;;0.40;0.40;;;;;;;-144.31;68.24;74601.03;5013638;28;20077;-78
2021/06/07 01:53:07;;;;;;;0.50;0.50;;;;;;;-144.31;68.24;74597.03;5004959;28;20526;-78
2021/06/07 01:55:41;;;;;;;0.50;0.50;;;;;;;-144.31;68.27;74605.03;5006973;28;20051;-78
2021/06/07 01:58:12;;;;;;;0.20;0.20;;;;;;;-144.31;68.27;74609.00;5015287;28;20384;-78
2021/06/07 02:00:43;;;;;;;0.57;0.45;;;;;;;-144.31;68.27;74599.03;5005783;28;20048;-78
2021/06/07 02:03:09;;;;;;;0.50;0.50;;;;;;;-144.31;68.25;74593.03;5013018;28;20046;-78
2021/06/07 02:05:39;;;;;;;0.40;0.40;;;;;;;-144.31;68.26;74593.03;5003150;28;20058;-78
2021/06/07 02:08:07;;;;;;;0.40;0.40;;;;;;;-144.31;68.28;74601.03;5003789;28;20461;-78
2021/06/07 02:10:37;;;;;;;0.30;0.30;;;;;;;-144.31;68.27;74597.03;4999507;28;20057;-78
2021/06/07 02:13:04;;;;;;;0.38;0.38;;;;;;;-144.31;68.29;74603.03;5006330;28;20096;-78
2021/06/07 02:15:30;;;;;;;0.50;0.50;;;;;;;-144.31;68.29;74603.03;5010745;28;20052;-78
2021/06/07 02:18:00;;;;;;;0.30;0.30;;;;;;;-144.31;68.30;74605.03;5008194;28;20037;-78
2021/06/07 02:20:25;;;;;;;0.40;0.40;;;;;;;-144.31;68.30;74609.00;5015297;28;20065;-78
2021/06/07 02:22:51;;;;;;;0.40;0.40;;;;;;;-144.31;68.31;74601.03;5014782;28;20045;-78
2021/06/07 02:25:19;;;;;;;0.50;0.50;;;;;;;-144.31;68.31;74605.03;5007549;28;20053;-79
2021/06/07 02:27:46;;;;;;;0.50;0.50;;;;;;;-144.31;68.31;74605.03;5001175;28;20050;-78
2021/06/07 02:30:19;;;;;;;0.40;0.40;;;;;;;-144.31;68.32;74605.03;5004209;28;20042;-78
2021/06/07 02:32:44;;;;;;;0.43;0.43;;;;;;;-144.31;68.31;74605.03;5012181;28;20116;-79
2021/06/07 02:35:13;;;;;;;0.40;0.40;;;;;;;-144.31;68.32;74609.00;5014254;28;20481;-78
2021/06/07 02:37:41;;;;;;;0.45;0.45;;;;;;;-144.31;68.32;74609.00;5005016;28;20042;-78
2021/06/07 02:40:09;;;;;;;0.50;0.50;;;;;;;-144.31;68.33;74611.00;5017166;28;20050;-78
2021/06/07 02:42:37;;;;;;;0.40;0.40;;;;;;;-144.31;68.32;74609.00;5018308;28;20054;-79
2021/06/07 02:45:05;;;;;;;0.35;0.35;;;;;;;-144.31;68.33;74611.00;5011287;28;20054;-78
2021/06/07 02:47:31;;;;;;;0.40;0.40;;;;;;;-144.31;68.33;74611.00;5000929;28;20046;-79
2021/06/07 02:49:57;;;;;;;0.55;0.55;;;;;;;-144.31;68.33;74613.00;5010827;28;20050;-78
2021/06/07 02:52:23;;;;;;;0.40;0.40;;;;;;;-144.31;68.33;74619.00;5020107;28;20045;-78
2021/06/07 02:54:48;;;;;;;0.50;0.50;;;;;;;-144.31;68.33;74619.00;5008072;28;20038;-78
2021/06/07 02:57:14;;;;;;;0.60;0.60;;;;;;;-144.31;68.34;74615.00;5012312;28;20049;-78
2021/06/07 02:59:39;;;;;;;0.40;0.40;;;;;;;-144.31;68.35;74623.00;4993915;28;20046;-78
2021/06/07 03:02:05;;;;;;;0.40;0.40;;;;;;;-144.31;68.35;74615.00;5008251;28;20056;-78
2021/06/07 03:04:33;;;;;;;0.43;0.43;;;;;;;-144.31;68.34;74611.00;5010882;28;20046;-78
2021/06/07 03:06:58;;;;;;;0.40;0.40;;;;;;;-144.31;68.37;74627.00;5010050;28;20508;-79
2021/06/07 03:09:24;;;;;;;0.47;0.47;;;;;;;-144.31;68.37;74632.97;5014225;28;20044;-79
2021/06/07 03:11:50;;;;;;;0.40;0.40;;;;;;;-144.31;68.38;74632.97;5009338;28;20126;-78
2021/06/07 03:14:15;;;;;;;0.60;0.60;;;;;;;-144.31;68.38;74630.97;5018466;28;20244;-78
2021/06/07 03:16:41;;;;;;;0.50;0.50;;;;;;;-144.31;68.35;74613.00;5009826;28;20404;-78
2021/06/07 03:19:07;;;;;;;0.50;0.50;;;;;;;-144.31;68.36;74609.00;5019353;28;20571;-78
2021/06/07 03:21:34;;;;;;;0.50;0.50;;;;;;;-144.31;68.38;74621.00;5008892;28;20559;-78
2021/06/07 03:24:00;;;;;;;0.32;0.32;;;;;;;-144.31;68.38;74615.00;5005709;28;20050;-79
2021/06/07 03:26:25;;;;;;;0.50;0.50;;;;;;;-144.31;68.35;74573.06;5009249;28;20574;-78
2021/06/07 03:28:51;;;;;;;0.50;0.50;;;;;;;-144.31;68.34;74571.06;5013126;28;20042;-79
2021/06/07 03:31:19;;;;;;;0.75;0.55;;;;;;;-144.31;68.33;74563.09;5017895;28;20415;-79
2021/06/07 03:33:45;;;;;;;0.50;0.50;;;;;;;-144.31;68.33;74571.06;5018224;28;20503;-79
2021/06/07 03:36:11;;;;;;;0.50;0.50;;;;;;;-144.31;68.34;74575.06;5018085;28;20129;-79
2021/06/07 03:38:37;;;;;;;0.40;0.40;;;;;;;-144.31;68.33;74579.06;5031270;28;20050;-78
2021/06/07 03:41:03;;;;;;;0.30;0.30;;;;;;;-144.31;68.33;74573.06;5027594;28;20041;-78
2021/06/07 03:43:31;;;;;;;0.50;0.50;;;;;;;-144.31;68.33;74593.03;5020256;28;20503;-78
2021/06/07 03:45:57;;;;;;;0.45;0.45;;;;;;;-144.31;68.33;74591.03;5010725;28;20050;-79
2021/06/07 03:48:25;;;;;;;0.50;0.50;;;;;;;-144.31;68.31;74591.03;5008732;28;20069;-79
2021/06/07 03:50:51;;;;;;;0.40;0.40;;;;;;;-144.31;68.30;74593.03;4993898;28;20414;-79
2021/06/07 03:53:17;;;;;;;0.40;0.40;;;;;;;-144.31;68.30;74581.06;5010852;28;20056;-79
2021/06/07 03:55:44;;;;;;;0.40;0.40;;;;;;;-144.31;68.30;74595.03;5008446;28;20045;-79
2021/06/07 03:58:10;;;;;;;0.47;0.47;;;;;;;-144.31;68.29;74591.03;4991906;28;20073;-79
2021/06/07 04:00:39;;;;;;;0.40;0.40;;;;;;;-144.31;68.27;74587.06;5013819;28;20038;-78
2021/06/07 04:03:06;;;;;;;0.50;0.50;;;;;;;-144.31;68.28;74593.03;5016912;28;20144;-79
2021/06/07 04:05:33;;;;;;;0.30;0.30;;;;;;;-144.31;68.27;74589.06;5006426;28;20113;-79
2021/06/07 04:08:00;;;;;;;0.47;0.47;;;;;;;-144.31;68.27;74581.06;5008646;28;20038;-79
2021/06/07 04:10:26;;;;;;;;;;;;;;;-144.31;68.26;74587.06;5009248;28;20053;-80
2021/06/07 04:12:53;;;;;;;0.40;0.40;;;;;;;-144.31;68.25;74583.06;5001917;28;19914;-76
2021/06/07 04:15:25;;;;;;;0.30;0.30;;;;;;;-144.31;68.26;74587.06;4992439;28;20045;-78
2021/06/07 04:17:51;;;;;;;0.38;0.38;;;;;;;-144.31;68.25;74581.06;5009661;28;20038;-78
2021/06/07 04:20:21;;;;;;;0.30;0.30;;;;;;;-144.31;68.25;74587.06;5016346;28;20054;-78
2021/06/07 04:22:47;;;;;;;0.40;0.40;;;;;;;-144.31;68.25;74587.06;5003396;28;20268;-78
2021/06/07 04:25:15;;;;;;;0.30;0.30;;;;;;;-144.31;68.24;74577.06;5024370;28;20046;-78
2021/06/07 04:27:42;;;;;;;0.40;0.40;;;;;;;-144.31;68.24;74577.06;5015786;28;20045;-78
2021/06/07 04:30:10;;;;;;;0.40;0.40;;;;;;;-144.31;68.23;74569.09;5004106;28;20046;-78
2021/06/07 04:32:37;;;;;;;0.35;0.35;;;;;;;-144.31;68.24;74577.06;5010857;28;20037;-78
2021/06/07 04:35:04;;;;;;;0.30;0.30;;;;;;;-144.31;68.24;74581.06;5018009;28;20081;-78
2021/06/07 04:37:30;;;;;;;0.30;0.30;;;;;;;-144.31;68.22;74571.06;5015335;28;20130;-78
2021/06/07 04:39:56;;;;;;;0.50;0.50;;;;;;;-144.31;68.21;74569.09;4990761;28;20057;-78
2021/06/07 04:42:21;;;;;;;0.30;0.30;;;;;;;-144.31;68.21;74569.09;5004059;28;20050;-78
2021/06/07 04:44:47;;;;;;;0.35;0.35;;;;;;;-144.31;68.20;74555.09;4981768;28;20100;-78
2021/06/07 04:47:13;;;;;;;0.45;0.45;;;;;;;-144.31;68.20;74555.09;5007587;28;20389;-78
2021/06/07 04:49:39;;;;;;;0.30;0.30;;;;;;;-144.31;68.17;74539.13;5007353;28;20622;-78
2021/06/07 04:52:05;;;;;;;0.40;0.40;;;;;;;-144.31;68.17;74535.13;5013538;28;20050;-78
2021/06/07 04:54:33;;;;;;;0.40;0.40;;;;;;;-144.31;68.14;74507.19;5006347;28;20456;-78
2021/06/07 04:56:58;;;;;;;0.30;0.30;;;;;;;-144.31;68.13;74505.19;5007615;28;20046;-78
2021/06/07 04:59:24;;;;;;;0.43;0.43;;;;;;;-144.31;68.13;74503.19;5002237;28;20066;-78
2021/06/07 05:01:51;;;;;;;0.40;0.40;;;;;;;-144.31;68.11;74507.19;5014747;28;20132;-78
2021/06/07 05:04:17;;;;;;;0.40;0.40;;;;;;;-144.31;68.12;74515.16;5007611;28;20050;-78
2021/06/07 05:06:42;;;;;;;0.40;0.40;;;;;;;-144.31;68.11;74525.16;5000333;28;20112;-78
2021/06/07 05:09:08;;;;;;;0.40;0.40;;;;;;;-144.31;68.11;74525.16;5005917;28;20045;-78
2021/06/07 05:11:34;;;;;;;0.35;0.35;;;;;;;-144.31;68.10;74527.16;5012246;28;20085;-78
2021/06/07 05:14:01;;;;;;;0.40;0.40;;;;;;;-144.31;68.10;74519.16;5008508;28;20129;-79
2021/06/07 05:16:27;;;;;;;0.30;0.30;;;;;;;-144.31;68.09;74527.16;5027691;28;20072;-79
2021/06/07 05:18:52;;;;;;;0.40;0.40;;;;;;;-144.31;68.08;74539.13;5019369;28;20526;-78
2021/06/07 05:21:18;;;;;;;0.40;0.40;;;;;;;-144.31;68.07;74521.16;5018315;28;20054;-78
2021/06/07 05:23:43;;;;;;;0.40;0.40;;;;;;;-144.31;68.06;74517.16;5008042;28;20456;-78
2021/06/07 05:26:10;;;;;;;0.38;0.38;;;;;;;-144.31;68.06;74521.16;5018336;28;20041;-78
2021/06/07 05:28:36;;;;;;;0.32;0.32;;;;;;;-144.31;68.05;74515.16;5008691;28;20061;-78
2021/06/07 05:31:04;;;;;;;0.40;0.40;;;;;;;-144.31;68.03;74513.16;5017992;28;20541;-78
2021/06/07 05:33:29;;;;;;;0.30;0.30;;;;;;;-144.31;68.02;74521.16;5005263;28;20044;-79
2021/06/07 05:35:55;;;;;;;0.30;0.30;;;;;;;-144.31;68.04;74531.13;5015558;28;20050;-78
2021/06/07 05:38:21;;;;;;;0.30;0.30;;;;;;;-144.31;68.03;74531.13;5004971;28;20046;-78
2021/06/07 05:40:50;;;;;;;0.45;0.45;;;;;;;-144.31;68.01;74503.19;5016383;28;20049;-78
2021/06/07 05:43:18;;;;;;;0.40;0.40;;;;;;;-144.31;68.00;74499.19;5007359;28;20046;-78
2021/06/07 05:45:44;;;;;;;0.30;0.30;;;;;;;-144.31;68.00;74499.19;4999012;28;20066;-78
2021/06/07 05:48:09;;;;;;;0.40;0.40;;;;;;;-144.31;68.00;74497.19;5004113;28;20050;-78
2021/06/07 05:50:37;;;;;;;0.47;0.47;;;;;;;-144.31;67.99;74487.22;5003642;28;20088;-78
2021/06/07 05:53:04;;;;;;;0.40;0.40;;;;;;;-144.31;67.98;74483.22;4997631;28;20104;-78
2021/06/07 05:55:35;;;;;;;0.30;0.30;;;;;;;-144.31;67.97;74473.22;4981662;28;20042;-79
2021/06/07 05:58:04;;;;;;;0.30;0.30;;;;;;;-144.31;67.97;74471.25;5008465;28;20045;-78
2021/06/07 06:00:36;;;;;;;0.30;0.30;;;;;;;-144.31;67.97;74471.25;4994539;28;20512;-76
2021/06/07 06:03:03;;;;;;;0.40;0.40;;;;;;;-144.31;67.97;74467.25;4992490;28;20038;-75
2021/06/07 06:05:29;;;;;;;0.20;0.20;;;;;;;-144.31;67.97;74459.25;5002573;28;20072;-76
2021/06/07 06:07:57;;;;;;;0.30;0.30;;;;;;;-144.31;67.94;74427.31;5000022;28;20050;-74
2021/06/07 06:10:23;;;;;;;0.30;0.30;;;;;;;-144.31;67.95;74423.31;5001376;28;20051;-76
2021/06/07 06:12:49;;;;;;;0.38;0.38;;;;;;;-144.31;67.96;74421.31;5005117;28;20048;-76
2021/06/07 06:15:20;;;;;;;0.40;0.40;;;;;;;-144.31;67.95;74411.34;5003292;28;20053;-76
2021/06/07 06:17:46;;;;;;;0.30;0.30;;;;;;;-144.31;67.97;74407.34;5016323;28;20133;-75
2021/06/07 06:20:14;;;;;;;0.30;0.30;;;;;;;-144.31;67.97;74403.34;5009547;28;20494;-75
2021/06/07 06:22:44;;;;;;;0.40;0.40;;;;;;;-144.31;67.98;74413.34;5003147;28;20042;-75
2021/06/07 06:25:11;;;;;;;0.40;0.40;;;;;;;-144.31;67.98;74409.34;5003735;28;20140;-75
2021/06/07 06:27:38;;;;;;;0.47;0.38;;;;;;;-144.31;68.00;74431.31;5008471;28;20096;-76
2021/06/07 06:30:09;;;;;;;0.30;0.30;;;;;;;-144.31;67.99;74407.34;5021041;28;20045;-73
2021/06/07 06:32:37;;;;;;;0.50;0.50;;;;;;;-144.31;67.97;74379.38;5008208;28;20081;-74
2021/06/07 06:35:07;;;;;;;0.50;0.50;;;;;;;-144.31;67.97;74355.44;5006089;28;20493;-74
2021/06/07 06:37:32;;;;;;;0.40;0.40;;;;;;;-144.31;68.00;74357.44;4990558;28;20117;-76
2021/06/07 06:39:58;;;;;;;0.30;0.30;;;;;;;-144.31;68.01;74337.47;5009627;28;20045;-75
2021/06/07 06:42:23;;;;;;;0.40;0.40;;;;;;;-144.31;68.06;74343.44;5001923;28;20129;-74
2021/06/07 06:44:49;;;;;;;0.30;0.30;;;;;;;-144.31;68.07;74329.47;5015661;28;20053;-76
2021/06/07 06:47:14;;;;;;;0.30;0.30;;;;;;;-144.31;68.10;74315.50;5010042;28;20258;-77
2021/06/07 06:49:40;;;;;;;0.35;0.35;;;;;;;-144.31;68.14;74321.47;5014516;28;20072;-77
2021/06/07 06:52:06;;;;;;;0.30;0.30;;;;;;;-144.31;68.22;74355.44;4994613;28;20089;-77
2021/06/07 06:54:31;;;;;;;0.30;0.30;;;;;;;-144.31;68.24;74351.44;5005433;28;20129;-77
2021/06/07 06:56:59;;;;;;;0.30;0.30;;;;;;;-144.31;68.30;74375.41;5024536;28;20188;-77
2021/06/07 06:59:25;;;;;;;0.30;0.30;;;;;;;-144.31;68.25;74317.50;4987074;28;20586;-77
2021/06/07 07:01:51;;;;;;;0.30;0.30;;;;;;;-144.31;68.29;74309.50;5010728;28;20069;-76
2021/06/07 07:04:16;;;;;;;0.40;0.40;;;;;;;-144.31;68.34;74305.50;5008812;28;20050;-77
2021/06/07 07:06:44;;;;;;;0.30;0.30;;;;;;;-144.31;68.39;74301.50;5009455;28;20384;-76
2021/06/07 07:09:10;;;;;;;0.30;0.30;;;;;;;-144.31;68.45;74321.47;5016601;28;20037;-76
2021/06/07 07:11:36;;;;;;;0.40;0.40;;;;;;;-144.31;68.49;74335.47;5026718;28;20049;-76
2021/06/07 07:14:03;;;;;;;0.40;0.40;;;;;;;-144.31;68.50;74365.41;5015138;28;20546;-77
2021/06/07 07:16:30;;;;;;;0.40;0.40;;;;;;;-144.31;68.41;74347.44;5001203;28;20116;-76
2021/06/07 07:18:55;;;;;;;0.40;0.40;;;;;;;-144.31;68.38;74323.47;5022777;28;20050;-76
2021/06/07 07:21:21;;;;;;;0.40;0.40;;;;;;;-144.31;68.39;74321.47;5007842;28;20064;-76
2021/06/07 07:23:47;;;;;;;0.40;0.40;;;;;;;-144.31;68.38;74305.50;5003702;28;20105;-76
2021/06/07 07:26:13;;;;;;;0.40;0.40;;;;;;;-144.31;68.41;74305.50;5005259;28;20388;-77
2021/06/07 07:28:41;;;;;;;0.30;0.30;;;;;;;-144.31;68.45;74299.53;5008559;28;20041;-76
2021/06/07 07:31:08;;;;;;;0.30;0.30;;;;;;;-144.31;68.49;74313.50;4998208;28;20125;-77
2021/06/07 07:33:38;;;;;;;0.30;0.30;;;;;;;-144.31;68.47;74293.53;5002370;28;20069;-77
2021/06/07 07:36:11;;;;;;;0.40;0.40;;;;;;;-144.31;68.49;74285.53;4990778;28;20115;-74
2021/06/07 07:38:37;;;;;;;0.30;0.30;;;;;;;-144.31;68.51;74287.53;4978076;28;20136;-76
2021/06/07 07:41:03;;;;;;;0.50;0.50;;;;;;;-144.31;68.51;74281.56;4993420;28;20038;-76
2021/06/07 07:43:28;;;;;;;0.40;0.40;;;;;;;-144.31;68.54;74263.56;4983928;28;20045;-76
2021/06/07 07:45:56;;;;;;;0.30;0.30;;;;;;;-144.31;68.57;74259.59;4983542;28;20037;-77
2021/06/07 07:48:21;;;;;;;0.30;0.30;;;;;;;-144.31;68.64;74259.59;5003014;28;20050;-75
2021/06/07 07:50:48;;;;;;;0.40;0.40;;;;;;;-144.31;68.66;74245.59;4999086;28;20045;-76
2021/06/07 07:53:15;;;;;;;0.40;0.40;;;;;;;-144.31;68.77;74271.56;5014631;28;20052;-76
2021/06/07 07:55:40;;;;;;;0.50;0.30;;;;;;;-144.31;68.74;74245.59;5017406;28;20042;-75
2021/06/07 07:58:10;;;;;;;0.40;0.40;;;;;;;-144.31;68.72;74227.63;4986742;28;20156;-77
2021/06/07 08:00:36;;;;;;;0.30;0.30;;;;;;;-144.31;68.81;74221.66;4997755;28;20159;-76
2021/06/07 08:03:04;;;;;;;0.40;0.40;;;;;;;-144.31;68.86;74229.63;5003375;28;20046;-76
2021/06/07 08:05:30;;;;;;;0.30;0.30;;;;;;;-144.31;68.91;74233.63;5011247;28;20427;-76
2021/06/07 08:07:57;;;;;;;0.40;0.40;;;;;;;-144.31;68.94;74251.59;4998610;28;20085;-76
2021/06/07 08:10:23;;;;;;;0.30;0.30;;;;;;;-144.31;68.94;74257.59;5001281;28;20912;-75
2021/06/07 08:12:48;;;;;;;0.40;0.40;;;;;;;-144.31;68.93;74267.56;5000133;28;20279;-73
2021/06/07 08:15:14;;;;;;;0.47;0.47;;;;;;;-144.31;68.83;74249.59;5000255;28;20048;-75
2021/06/07 08:17:40;;;;;;;0.30;0.30;;;;;;;-144.31;68.85;74265.56;4997967;28;20047;-74
2021/06/07 08:20:08;;;;;;;0.40;0.40;;;;;;;-144.31;68.83;74275.56;5015251;28;20083;-76
2021/06/07 08:22:34;;;;;;;0.30;0.30;;;;;;;-144.31;68.76;74261.59;4995797;28;20093;-75
2021/06/07 08:25:00;;;;;;;0.30;0.30;;;;;;;-144.31;68.76;74259.59;5001771;28;20572;-76
2021/06/07 08:27:27;;;;;;;0.25;0.25;;;;;;;-144.31;68.76;74269.56;4999660;28;20048;-76
2021/06/07 08:29:53;;;;;;;0.40;0.40;;;;;;;-144.31;68.72;74255.59;5009588;28;20049;-75
2021/06/07 08:32:18;;;;;;;0.30;0.30;;;;;;;-144.31;68.80;74283.53;5016919;28;20037;-74
2021/06/07 08:34:44;;;;;;;0.40;0.40;;;;;;;-144.31;68.73;74285.53;4996270;28;20848;-75
2021/06/07 08:37:11;;;;;;;0.30;0.30;;;;;;;-144.31;68.64;74277.56;4999021;28;20042;-75
2021/06/07 08:39:37;;;;;;;0.40;0.40;;;;;;;-144.31;68.59;74275.56;4998427;28;20392;-77
2021/06/07 08:42:03;;;;;;;0.30;0.30;;;;;;;-144.31;68.58;74273.56;5002045;28;20061;-75
2021/06/07 08:44:31;;;;;;;0.40;0.40;;;;;;;-144.31;68.53;74269.56;4998769;28;20046;-73
2021/06/07 08:46:57;;;;;;;0.35;0.35;;;;;;;-144.31;68.54;74261.59;5004574;28;20048;-75
2021/06/07 08:49:25;;;;;;;0.30;0.30;;;;;;;-144.31;68.57;74267.56;4984184;28;20076;-73
2021/06/07 08:51:58;;;;;;;0.32;0.32;;;;;;;-144.31;68.60;74275.56;5001834;28;20057;-75
2021/06/07 08:54:24;;;;;;;0.30;0.30;;;;;;;-144.31;68.58;74271.56;4999974;28;20064;-75
2021/06/07 08:56:50;;;;;;;0.40;0.40;;;;;;;-144.31;68.53;74237.63;5018939;28;20042;-76
2021/06/07 08:59:16;;;;;;;0.40;0.40;;;;;;;-144.31;68.54;74203.69;5002329;28;20160;-72
2021/06/07 09:01:42;;;;;;;0.40;0.40;;;;;;;-144.31;68.57;74195.69;5000598;28;20038;-75
2021/06/07 09:04:13;;;;;;;0.30;0.30;;;;;;;-144.31;68.66;74213.66;5000203;28;20052;-76
2021/06/07 09:06:42;;;;;;;0.30;0.30;;;;;;;-144.31;68.68;74219.66;4998553;28;20052;-75
2021/06/07 09:09:10;;;;;;;0.25;0.25;;;;;;;-144.31;68.67;74217.66;5004157;28;20077;-75
2021/06/07 09:11:58;;;;;;;0.30;0.30;;;;;;;-144.31;68.68;74207.69;5004104;28;20052;-75
2021/06/07 09:14:34;;;;;;;0.40;0.40;;;;;;;-144.31;68.66;74167.75;4984398;28;20040;-75
2021/06/07 09:16:59;;;;;;;0.30;0.30;;;;;;;-144.31;68.71;74081.88;4986656;28;20083;-74
2021/06/07 09:19:27;;;;;;;0.30;0.30;;;;;;;-144.31;68.93;74024.00;5009566;28;20050;-76
2021/06/07 09:22:34;;;;;;;0.38;0.38;;;;;;;-144.31;69.21;73958.09;4996890;28;20045;-76
2021/06/07 09:25:03;;;;;;;;;;;;;;;-144.31;69.64;73904.19;5002136;28;20049;-75
2021/06/07 09:27:29;;;;;;;0.20;0.20;;;;;;;-144.31;70.11;73946.13;4974957;28;19929;-76
2021/06/07 09:29:54;;;;;;;0.30;0.30;;;;;;;-144.31;70.39;73948.13;5007552;28;20050;-68
2021/06/07 09:32:22;;;;;;;0.20;0.20;;;;;;;-144.31;70.60;73952.13;4999373;28;20491;-75
2021/06/07 09:35:07;;;;;;;0.20;0.20;;;;;;;-144.31;70.77;73920.16;4995623;28;20144;-73
2021/06/07 09:37:33;;;;;;;0.20;0.20;;;;;;;-144.31;70.98;73912.19;5017674;28;20045;-76
2021/06/07 09:40:19;;;;;;;0.20;0.20;;;;;;;-144.31;71.32;73908.19;5000828;28;20113;-75
2021/06/07 09:42:57;;;;;;;0.20;0.20;;;;;;;-144.31;71.56;73940.13;4998230;28;20132;-75
2021/06/07 09:45:42;;;;;;;0.30;0.30;;;;;;;-144.31;71.32;73926.16;5018468;28;20136;-76
2021/06/07 09:48:12;;;;;;;0.28;0.28;;;;;;;-144.31;71.41;73970.09;5002387;28;20072;-76
2021/06/07 09:50:51;;;;;;;0.20;0.20;;;;;;;-144.31;71.12;73914.19;5000368;28;20125;-76
2021/06/07 09:53:39;;;;;;;0.32;0.32;;;;;;;-144.31;71.32;73956.09;5000886;28;20389;-75
2021/06/07 09:56:05;;;;;;;0.20;0.20;;;;;;;-144.31;71.32;74031.97;4989923;28;20087;-75
2021/06/07 09:58:32;;;;;;;0.20;0.20;;;;;;;-144.31;70.81;74000.03;4980712;28;20042;-75
2021/06/07 10:00:58;;;;;;;0.50;0.50;;;;;;;-144.31;70.80;74016.00;4998145;28;20488;-74
2021/06/07 10:03:26;;;;;;;0.22;0.22;;;;;;;-144.31;70.52;73966.09;5011515;28;20486;-76
2021/06/07 10:06:04;;;;;;;0.30;0.30;;;;;;;-144.31;70.69;73930.16;4999002;28;20042;-76
2021/06/07 10:08:51;;;;;;;0.30;0.30;;;;;;;-144.31;70.94;73908.19;4992466;28;20084;-76
2021/06/07 10:11:26;;;;;;;0.20;0.20;;;;;;;-144.31;71.13;73860.28;4997720;28;20044;-76
2021/06/07 10:14:05;;;;;;;0.45;0.38;;;;;;;-144.31;71.54;73850.28;4996431;28;20116;-79
2021/06/07 10:16:30;;;;;;;0.30;0.30;;;;;;;-144.31;71.92;73862.28;5001433;28;20045;-75
2021/06/07 10:18:58;;;;;;;0.47;0.47;;;;;;;-144.31;72.09;73880.25;5011728;28;20089;-74
2021/06/07 10:21:24;;;;;;;0.30;0.30;;;;;;;-144.31;71.91;73950.13;4981657;28;20057;-75
2021/06/07 10:23:50;;;;;;;0.30;0.30;;;;;;;-144.31;71.63;74008.00;4999657;28;20042;-75
2021/06/07 10:26:16;;;;;;;0.80;0.40;;;;;;;-144.31;71.10;74041.97;5016689;28;20045;-76
2021/06/07 10:28:42;;;;;;;0.20;0.20;;;;;;;-144.31;70.58;74065.91;4979767;28;21106;-74
2021/06/07 10:31:17;;;;;;;0.20;0.20;;;;;;;-144.31;70.26;74125.81;5002448;28;20048;-74
2021/06/07 10:33:55;;;;;;;0.40;0.40;;;;;;;-144.31;69.81;74129.81;5002039;28;21264;-76
2021/06/07 10:36:22;;;;;;;0.30;0.30;;;;;;;-144.31;69.51;74129.81;4983983;28;20056;-75
2021/06/07 10:38:54;;;;;;;0.30;0.30;;;;;;;-144.31;69.37;74177.72;4992999;28;20045;-75
2021/06/07 10:41:25;;;;;;;0.40;0.40;;;;;;;-144.31;69.19;74267.56;5017623;28;20183;-73
2021/06/07 10:43:56;;;;;;;0.50;0.50;;;;;;;-144.31;68.71;74289.53;4977691;28;20569;-77
2021/06/07 10:46:29;;;;;;;0.45;0.45;;;;;;;-144.31;68.42;74281.56;4997009;28;20096;-73
2021/06/07 10:48:59;;;;;;;0.28;0.28;;;;;;;-144.31;68.26;74267.56;4994893;28;20038;-75
2021/06/07 10:51:29;;;;;;;0.40;0.40;;;;;;;-144.31;68.19;74275.56;5015246;28;20034;-76
2021/06/07 10:54:33;;;;;;;0.47;0.45;;;;;;;-144.31;68.14;74303.50;4995120;28;20042;-73
2021/06/07 10:57:27;;;;;;;0.47;0.47;;;;;;;-144.31;68.08;74309.50;4947810;28;20049;-75
2021/06/07 10:59:55;;;;;;;0.50;0.50;;;;;;;-144.31;68.05;74337.47;4981527;28;20034;-77
2021/06/07 11:02:23;;;;;;;0.43;0.43;;;;;;;-144.31;68.00;74319.50;4994399;28;20097;-76
2021/06/07 11:05:04;;;;;;;0.50;0.50;;;;;;;-144.31;67.98;74317.50;5001563;28;20148;-75
2021/06/07 11:07:30;;;;;;;0.40;0.40;;;;;;;-144.31;67.96;74313.50;4997907;28;20049;-75
2021/06/07 11:10:23;;;;;;;0.50;0.50;;;;;;;-144.31;67.96;74333.47;4999508;28;20089;-76
2021/06/07 11:12:54;;;;;;;0.40;0.40;;;;;;;-144.31;67.94;74329.47;4978307;28;20416;-76
2021/06/07 11:15:49;;;;;;;0.30;0.30;;;;;;;-144.31;67.94;74347.44;4998456;28;20042;-76
2021/06/07 11:18:22;;;;;;;0.50;0.50;;;;;;;-144.31;67.93;74355.44;4981290;28;20050;-73
2021/06/07 11:20:55;;;;;;;0.40;0.40;;;;;;;-144.31;67.91;74351.44;5017240;28;20053;-75
2021/06/07 11:23:30;;;;;;;0.57;0.57;;;;;;;-144.31;67.90;74339.44;5003515;28;20050;-75